sensor_id;sensor_type;location;lat;lon;timestamp;pressure;altitude;pressure_sealevel;temperature;humidity
66668;BME280;57205;51.438;-2.006;2022-12-18T00:00:42;101350.78;;;-0.24;100.00
66668;BME280;57205;51.438;-2.006;2022-12-18T00:03:08;101349.78;;;-0.23;100.00
66668;BME280;57205;51.438;-2.006;2022-12-18T00:05:33;101338.75;;;-0.19;100.00
66668;BME280;57205;51.438;-2.006;2022-12-18T00:07:58;101329.03;;;-0.18;100.00
66668;BME280;57205;51.438;-2.006;2022-12-18T00:10:24;101328.41;;;-0.20;100.00
66668;BME280;57205;51.438;-2.006;2022-12-18T00:12:49;101333.13;;;-0.16;100.00
66668;BME280;57205;51.438;-2.006;2022-12-18T00:15:15;101327.88;;;-0.16;100.00
66668;BME280;57205;51.438;-2.006;2022-12-18T00:17:40;101327.31;;;-0.11;100.00
66668;BME280;57205;51.438;-2.006;2022-12-18T00:20:05;101329.63;;;-0.08;100.00
66668;BME280;57205;51.438;-2.006;2022-12-18T00:22:31;101321.72;;;-0.08;100.00
66668;BME280;57205;51.438;-2.006;2022-12-18T00:24:58;101314.19;;;-0.11;100.00
66668;BME280;57205;51.438;-2.006;2022-12-18T00:27:23;101307.66;;;-0.15;100.00
66668;BME280;57205;51.438;-2.006;2022-12-18T00:29:48;101310.00;;;-0.20;100.00
66668;BME280;57205;51.438;-2.006;2022-12-18T00:32:15;101307.91;;;-0.25;100.00
66668;BME280;57205;51.438;-2.006;2022-12-18T00:34:41;101311.97;;;-0.22;100.00
66668;BME280;57205;51.438;-2.006;2022-12-18T00:37:06;101305.75;;;-0.21;100.00
66668;BME280;57205;51.438;-2.006;2022-12-18T00:39:31;101305.56;;;-0.20;100.00
66668;BME280;57205;51.438;-2.006;2022-12-18T00:41:56;101313.06;;;-0.17;100.00
66668;BME280;57205;51.438;-2.006;2022-12-18T00:44:40;101300.28;;;-0.20;100.00
66668;BME280;57205;51.438;-2.006;2022-12-18T00:47:06;101299.94;;;-0.17;100.00
66668;BME280;57205;51.438;-2.006;2022-12-18T00:49:31;101292.41;;;-0.20;100.00
66668;BME280;57205;51.438;-2.006;2022-12-18T00:51:57;101281.69;;;-0.18;100.00
66668;BME280;57205;51.438;-2.006;2022-12-18T00:54:22;101281.38;;;-0.15;100.00
66668;BME280;57205;51.438;-2.006;2022-12-18T00:56:49;101275.28;;;-0.16;100.00
66668;BME280;57205;51.438;-2.006;2022-12-18T00:59:15;101272.09;;;-0.11;100.00
66668;BME280;57205;51.438;-2.006;2022-12-18T01:01:40;101274.13;;;-0.13;100.00
66668;BME280;57205;51.438;-2.006;2022-12-18T01:04:06;101275.47;;;-0.17;100.00
66668;BME280;57205;51.438;-2.006;2022-12-18T01:06:31;101271.00;;;-0.17;100.00
66668;BME280;57205;51.438;-2.006;2022-12-18T01:08:56;101269.56;;;-0.19;100.00
66668;BME280;57205;51.438;-2.006;2022-12-18T01:11:22;101276.81;;;-0.21;100.00
66668;BME280;57205;51.438;-2.006;2022-12-18T01:13:48;101271.09;;;-0.25;100.00
66668;BME280;57205;51.438;-2.006;2022-12-18T01:16:14;101270.97;;;-0.31;100.00
66668;BME280;57205;51.438;-2.006;2022-12-18T01:18:39;101272.63;;;-0.30;100.00
66668;BME280;57205;51.438;-2.006;2022-12-18T01:21:09;101268.06;;;-0.36;100.00
66668;BME280;57205;51.438;-2.006;2022-12-18T01:23:34;101269.59;;;-0.42;100.00
66668;BME280;57205;51.438;-2.006;2022-12-18T01:26:04;101268.94;;;-0.44;100.00
66668;BME280;57205;51.438;-2.006;2022-12-18T01:28:29;101264.22;;;-0.48;100.00
66668;BME280;57205;51.438;-2.006;2022-12-18T01:30:54;101271.81;;;-0.53;100.00
66668;BME280;57205;51.438;-2.006;2022-12-18T01:33:19;101268.34;;;-0.54;100.00
66668;BME280;57205;51.438;-2.006;2022-12-18T01:35:45;101260.19;;;-0.59;100.00
66668;BME280;57205;51.438;-2.006;2022-12-18T01:38:10;101272.19;;;-0.56;100.00
66668;BME280;57205;51.438;-2.006;2022-12-18T01:40:35;101273.78;;;-0.55;100.00
66668;BME280;57205;51.438;-2.006;2022-12-18T01:43:01;101269.38;;;-0.55;100.00
66668;BME280;57205;51.438;-2.006;2022-12-18T01:45:27;101271.47;;;-0.50;100.00
66668;BME280;57205;51.438;-2.006;2022-12-18T01:47:57;101277.06;;;-0.53;100.00
66668;BME280;57205;51.438;-2.006;2022-12-18T01:50:32;101277.06;;;-0.53;100.00
66668;BME280;57205;51.438;-2.006;2022-12-18T01:53:04;101269.72;;;-0.58;100.00
66668;BME280;57205;51.438;-2.006;2022-12-18T01:55:31;101275.13;;;-0.59;100.00
66668;BME280;57205;51.438;-2.006;2022-12-18T01:57:57;101275.44;;;-0.54;100.00
66668;BME280;57205;51.438;-2.006;2022-12-18T02:00:24;101273.47;;;-0.52;100.00
66668;BME280;57205;51.438;-2.006;2022-12-18T02:02:50;101280.72;;;-0.54;100.00
66668;BME280;57205;51.438;-2.006;2022-12-18T02:05:19;101273.00;;;-0.56;100.00
66668;BME280;57205;51.438;-2.006;2022-12-18T02:10:30;101276.97;;;-0.60;100.00
66668;BME280;57205;51.438;-2.006;2022-12-18T02:13:05;101280.72;;;-0.54;100.00
66668;BME280;57205;51.438;-2.006;2022-12-18T02:18:27;101285.97;;;-0.54;100.00
66668;BME280;57205;51.438;-2.006;2022-12-18T02:21:01;101277.44;;;-0.56;100.00
66668;BME280;57205;51.438;-2.006;2022-12-18T02:31:43;101245.22;;;-0.36;100.00
66668;BME280;57205;51.438;-2.006;2022-12-18T02:34:10;101254.56;;;-0.33;100.00
66668;BME280;57205;51.438;-2.006;2022-12-18T02:36:36;101253.34;;;-0.23;100.00
66668;BME280;57205;51.438;-2.006;2022-12-18T02:39:04;101247.25;;;-0.23;100.00
66668;BME280;57205;51.438;-2.006;2022-12-18T02:41:30;101250.53;;;-0.21;100.00
66668;BME280;57205;51.438;-2.006;2022-12-18T02:43:57;101258.41;;;-0.21;100.00
66668;BME280;57205;51.438;-2.006;2022-12-18T02:46:36;101252.13;;;-0.20;100.00
66668;BME280;57205;51.438;-2.006;2022-12-18T02:49:05;101260.34;;;-0.15;100.00
66668;BME280;57205;51.438;-2.006;2022-12-18T02:51:50;101261.59;;;-0.11;100.00
66668;BME280;57205;51.438;-2.006;2022-12-18T02:56:45;101252.00;;;-0.04;100.00
66668;BME280;57205;51.438;-2.006;2022-12-18T02:59:58;101240.47;;;-0.03;100.00
66668;BME280;57205;51.438;-2.006;2022-12-18T03:01:58;101243.22;;;0.04;100.00
66668;BME280;57205;51.438;-2.006;2022-12-18T03:04:26;101250.09;;;0.05;100.00
66668;BME280;57205;51.438;-2.006;2022-12-18T03:06:57;101248.47;;;0.04;100.00
66668;BME280;57205;51.438;-2.006;2022-12-18T03:09:26;101238.41;;;0.07;100.00
66668;BME280;57205;51.438;-2.006;2022-12-18T03:11:54;101251.19;;;0.10;100.00
66668;BME280;57205;51.438;-2.006;2022-12-18T03:14:39;101247.00;;;0.16;100.00
66668;BME280;57205;51.438;-2.006;2022-12-18T03:17:07;101234.69;;;0.16;100.00
66668;BME280;57205;51.438;-2.006;2022-12-18T03:19:38;101238.28;;;0.15;100.00
66668;BME280;57205;51.438;-2.006;2022-12-18T03:22:04;101226.78;;;0.16;100.00
66668;BME280;57205;51.438;-2.006;2022-12-18T03:24:32;101229.41;;;0.16;100.00
66668;BME280;57205;51.438;-2.006;2022-12-18T03:26:59;101229.69;;;0.21;100.00
66668;BME280;57205;51.438;-2.006;2022-12-18T03:29:39;101231.78;;;0.26;100.00
66668;BME280;57205;51.438;-2.006;2022-12-18T03:32:06;101230.59;;;0.28;100.00
66668;BME280;57205;51.438;-2.006;2022-12-18T03:34:35;101232.88;;;0.31;100.00
66668;BME280;57205;51.438;-2.006;2022-12-18T03:37:01;101223.31;;;0.30;100.00
66668;BME280;57205;51.438;-2.006;2022-12-18T03:39:29;101218.69;;;0.32;100.00
66668;BME280;57205;51.438;-2.006;2022-12-18T03:42:09;101198.66;;;0.31;100.00
66668;BME280;57205;51.438;-2.006;2022-12-18T03:44:39;101201.75;;;0.35;100.00
66668;BME280;57205;51.438;-2.006;2022-12-18T03:47:07;101208.81;;;0.34;100.00
66668;BME280;57205;51.438;-2.006;2022-12-18T03:49:36;101209.63;;;0.35;100.00
66668;BME280;57205;51.438;-2.006;2022-12-18T03:52:05;101202.81;;;0.40;100.00
66668;BME280;57205;51.438;-2.006;2022-12-18T03:54:32;101205.72;;;0.45;100.00
66668;BME280;57205;51.438;-2.006;2022-12-18T03:56:59;101201.72;;;0.49;100.00
66668;BME280;57205;51.438;-2.006;2022-12-18T03:59:26;101193.72;;;0.57;100.00
66668;BME280;57205;51.438;-2.006;2022-12-18T04:01:52;101187.97;;;0.68;100.00
66668;BME280;57205;51.438;-2.006;2022-12-18T04:04:18;101182.31;;;0.71;100.00
66668;BME280;57205;51.438;-2.006;2022-12-18T04:06:43;101179.69;;;0.71;100.00
66668;BME280;57205;51.438;-2.006;2022-12-18T04:09:10;101174.41;;;0.71;100.00
66668;BME280;57205;51.438;-2.006;2022-12-18T04:11:36;101177.25;;;0.70;100.00
66668;BME280;57205;51.438;-2.006;2022-12-18T04:14:01;101172.16;;;0.68;100.00
66668;BME280;57205;51.438;-2.006;2022-12-18T04:16:26;101154.19;;;0.72;100.00
66668;BME280;57205;51.438;-2.006;2022-12-18T04:18:52;101152.63;;;0.77;100.00
66668;BME280;57205;51.438;-2.006;2022-12-18T04:21:17;101137.44;;;0.79;100.00
66668;BME280;57205;51.438;-2.006;2022-12-18T04:23:43;101131.22;;;0.87;100.00
66668;BME280;57205;51.438;-2.006;2022-12-18T04:26:08;101131.44;;;0.85;100.00
66668;BME280;57205;51.438;-2.006;2022-12-18T04:28:33;101120.69;;;0.87;100.00
66668;BME280;57205;51.438;-2.006;2022-12-18T04:30:58;101117.06;;;0.88;100.00
66668;BME280;57205;51.438;-2.006;2022-12-18T04:33:23;101121.38;;;0.95;100.00
66668;BME280;57205;51.438;-2.006;2022-12-18T04:35:49;101112.66;;;0.95;100.00
66668;BME280;57205;51.438;-2.006;2022-12-18T04:38:14;101104.38;;;0.98;100.00
66668;BME280;57205;51.438;-2.006;2022-12-18T04:40:39;101086.72;;;0.98;100.00
66668;BME280;57205;51.438;-2.006;2022-12-18T04:43:05;101085.56;;;1.01;100.00
66668;BME280;57205;51.438;-2.006;2022-12-18T04:45:31;101097.09;;;1.00;100.00
66668;BME280;57205;51.438;-2.006;2022-12-18T04:47:59;101088.78;;;0.96;100.00
66668;BME280;57205;51.438;-2.006;2022-12-18T04:50:24;101096.22;;;0.93;100.00
66668;BME280;57205;51.438;-2.006;2022-12-18T04:52:50;101090.34;;;0.91;100.00
66668;BME280;57205;51.438;-2.006;2022-12-18T04:55:15;101092.78;;;0.92;100.00
66668;BME280;57205;51.438;-2.006;2022-12-18T04:57:40;101074.38;;;0.99;100.00
66668;BME280;57205;51.438;-2.006;2022-12-18T05:00:06;101075.84;;;1.02;100.00
66668;BME280;57205;51.438;-2.006;2022-12-18T05:02:31;101069.38;;;1.04;100.00
66668;BME280;57205;51.438;-2.006;2022-12-18T05:04:57;101065.28;;;1.02;100.00
66668;BME280;57205;51.438;-2.006;2022-12-18T05:07:22;101067.94;;;1.02;100.00
66668;BME280;57205;51.438;-2.006;2022-12-18T05:09:47;101061.66;;;1.02;100.00
66668;BME280;57205;51.438;-2.006;2022-12-18T05:12:12;101058.03;;;1.04;100.00
66668;BME280;57205;51.438;-2.006;2022-12-18T05:14:38;101062.91;;;1.07;100.00
66668;BME280;57205;51.438;-2.006;2022-12-18T05:17:03;101064.91;;;1.05;100.00
66668;BME280;57205;51.438;-2.006;2022-12-18T05:19:28;101050.75;;;1.06;100.00
66668;BME280;57205;51.438;-2.006;2022-12-18T05:21:53;101041.00;;;1.06;100.00
66668;BME280;57205;51.438;-2.006;2022-12-18T05:24:19;101023.56;;;1.05;100.00
66668;BME280;57205;51.438;-2.006;2022-12-18T05:26:44;101026.63;;;1.09;100.00
66668;BME280;57205;51.438;-2.006;2022-12-18T05:29:09;101033.53;;;1.10;100.00
66668;BME280;57205;51.438;-2.006;2022-12-18T05:31:37;101027.25;;;1.11;100.00
66668;BME280;57205;51.438;-2.006;2022-12-18T05:34:02;101015.69;;;1.12;100.00
66668;BME280;57205;51.438;-2.006;2022-12-18T05:36:27;101013.69;;;1.14;100.00
66668;BME280;57205;51.438;-2.006;2022-12-18T05:38:53;101010.88;;;1.15;100.00
66668;BME280;57205;51.438;-2.006;2022-12-18T05:41:18;101002.53;;;1.12;100.00
66668;BME280;57205;51.438;-2.006;2022-12-18T05:43:43;100990.56;;;1.09;100.00
66668;BME280;57205;51.438;-2.006;2022-12-18T05:46:11;100988.56;;;1.11;100.00
66668;BME280;57205;51.438;-2.006;2022-12-18T05:48:37;100975.94;;;1.07;100.00
66668;BME280;57205;51.438;-2.006;2022-12-18T05:51:07;100968.66;;;1.09;100.00
66668;BME280;57205;51.438;-2.006;2022-12-18T05:53:32;100963.63;;;1.14;100.00
66668;BME280;57205;51.438;-2.006;2022-12-18T05:55:59;100950.44;;;1.14;100.00
66668;BME280;57205;51.438;-2.006;2022-12-18T05:58:25;100947.63;;;1.15;100.00
66668;BME280;57205;51.438;-2.006;2022-12-18T06:00:50;100945.03;;;1.22;100.00
66668;BME280;57205;51.438;-2.006;2022-12-18T06:03:15;100946.63;;;1.23;100.00
66668;BME280;57205;51.438;-2.006;2022-12-18T06:05:42;100947.88;;;1.27;100.00
66668;BME280;57205;51.438;-2.006;2022-12-18T06:08:08;100953.16;;;1.27;100.00
66668;BME280;57205;51.438;-2.006;2022-12-18T06:10:33;100950.16;;;1.30;100.00
66668;BME280;57205;51.438;-2.006;2022-12-18T06:12:58;100940.59;;;1.29;100.00
66668;BME280;57205;51.438;-2.006;2022-12-18T06:15:24;100938.56;;;1.31;100.00
66668;BME280;57205;51.438;-2.006;2022-12-18T06:17:49;100942.66;;;1.33;100.00
66668;BME280;57205;51.438;-2.006;2022-12-18T06:20:15;100963.13;;;1.38;100.00
66668;BME280;57205;51.438;-2.006;2022-12-18T06:22:40;100955.66;;;1.41;100.00
66668;BME280;57205;51.438;-2.006;2022-12-18T06:25:05;100964.56;;;1.40;100.00
66668;BME280;57205;51.438;-2.006;2022-12-18T06:27:31;100954.44;;;1.44;100.00
66668;BME280;57205;51.438;-2.006;2022-12-18T06:29:56;100949.59;;;1.47;99.99
66668;BME280;57205;51.438;-2.006;2022-12-18T06:32:22;100944.31;;;1.47;100.00
66668;BME280;57205;51.438;-2.006;2022-12-18T06:34:47;100946.34;;;1.45;100.00
66668;BME280;57205;51.438;-2.006;2022-12-18T06:37:12;100926.66;;;1.41;100.00
66668;BME280;57205;51.438;-2.006;2022-12-18T06:39:37;100917.75;;;1.42;100.00
66668;BME280;57205;51.438;-2.006;2022-12-18T06:42:03;100913.91;;;1.45;100.00
66668;BME280;57205;51.438;-2.006;2022-12-18T06:44:28;100924.88;;;1.55;100.00
66668;BME280;57205;51.438;-2.006;2022-12-18T06:46:53;100925.28;;;1.58;100.00
66668;BME280;57205;51.438;-2.006;2022-12-18T06:49:19;100918.41;;;1.64;99.56
66668;BME280;57205;51.438;-2.006;2022-12-18T06:51:44;100919.66;;;1.68;99.81
66668;BME280;57205;51.438;-2.006;2022-12-18T06:54:09;100925.53;;;1.70;99.50
66668;BME280;57205;51.438;-2.006;2022-12-18T06:56:34;100928.19;;;1.70;99.74
66668;BME280;57205;51.438;-2.006;2022-12-18T06:59:00;100940.53;;;1.69;99.24
66668;BME280;57205;51.438;-2.006;2022-12-18T07:01:25;100953.56;;;1.71;99.88
66668;BME280;57205;51.438;-2.006;2022-12-18T07:03:52;100950.09;;;1.70;99.14
66668;BME280;57205;51.438;-2.006;2022-12-18T07:06:19;100942.38;;;1.69;99.67
66668;BME280;57205;51.438;-2.006;2022-12-18T07:08:45;100944.22;;;1.68;99.56
66668;BME280;57205;51.438;-2.006;2022-12-18T07:11:11;100938.31;;;1.66;99.99
66668;BME280;57205;51.438;-2.006;2022-12-18T07:13:36;100942.38;;;1.69;99.88
66668;BME280;57205;51.438;-2.006;2022-12-18T07:16:08;100947.03;;;1.67;99.36
66668;BME280;57205;51.438;-2.006;2022-12-18T07:18:34;100938.53;;;1.65;99.51
66668;BME280;57205;51.438;-2.006;2022-12-18T07:21:06;100954.53;;;1.63;100.00
66668;BME280;57205;51.438;-2.006;2022-12-18T07:23:32;100968.72;;;1.62;100.00
66668;BME280;57205;51.438;-2.006;2022-12-18T07:26:03;100963.03;;;1.59;100.00
66668;BME280;57205;51.438;-2.006;2022-12-18T07:28:28;100949.03;;;1.58;100.00
66668;BME280;57205;51.438;-2.006;2022-12-18T07:30:53;100953.69;;;1.56;100.00
66668;BME280;57205;51.438;-2.006;2022-12-18T07:33:19;100960.19;;;1.54;100.00
66668;BME280;57205;51.438;-2.006;2022-12-18T07:35:44;100960.56;;;1.51;100.00
66668;BME280;57205;51.438;-2.006;2022-12-18T07:38:09;100944.94;;;1.49;100.00
66668;BME280;57205;51.438;-2.006;2022-12-18T07:40:34;100935.41;;;1.48;100.00
66668;BME280;57205;51.438;-2.006;2022-12-18T07:43:00;100939.28;;;1.52;100.00
66668;BME280;57205;51.438;-2.006;2022-12-18T07:45:25;100940.09;;;1.53;100.00
66668;BME280;57205;51.438;-2.006;2022-12-18T07:47:50;100954.50;;;1.57;100.00
66668;BME280;57205;51.438;-2.006;2022-12-18T07:50:15;100952.50;;;1.59;100.00
66668;BME280;57205;51.438;-2.006;2022-12-18T07:52:41;100943.56;;;1.60;100.00
66668;BME280;57205;51.438;-2.006;2022-12-18T07:55:06;100959.56;;;1.58;100.00
66668;BME280;57205;51.438;-2.006;2022-12-18T07:57:31;100966.91;;;1.63;100.00
66668;BME280;57205;51.438;-2.006;2022-12-18T07:59:57;100953.53;;;1.64;100.00
66668;BME280;57205;51.438;-2.006;2022-12-18T08:02:22;100944.16;;;1.62;100.00
66668;BME280;57205;51.438;-2.006;2022-12-18T08:04:47;100955.13;;;1.59;100.00
66668;BME280;57205;51.438;-2.006;2022-12-18T08:07:12;100953.94;;;1.61;100.00
66668;BME280;57205;51.438;-2.006;2022-12-18T08:09:38;100954.72;;;1.62;100.00
66668;BME280;57205;51.438;-2.006;2022-12-18T08:12:03;100962.47;;;1.63;100.00
66668;BME280;57205;51.438;-2.006;2022-12-18T08:14:28;100958.22;;;1.69;100.00
66668;BME280;57205;51.438;-2.006;2022-12-18T08:16:54;100944.41;;;1.67;100.00
66668;BME280;57205;51.438;-2.006;2022-12-18T08:19:19;100956.78;;;1.66;100.00
66668;BME280;57205;51.438;-2.006;2022-12-18T08:21:44;100958.00;;;1.70;100.00
66668;BME280;57205;51.438;-2.006;2022-12-18T08:24:09;100966.75;;;1.71;100.00
66668;BME280;57205;51.438;-2.006;2022-12-18T08:26:36;100961.47;;;1.71;100.00
66668;BME280;57205;51.438;-2.006;2022-12-18T08:29:01;100958.63;;;1.72;100.00
66668;BME280;57205;51.438;-2.006;2022-12-18T08:31:28;100955.38;;;1.70;100.00
66668;BME280;57205;51.438;-2.006;2022-12-18T08:33:54;100973.63;;;1.72;100.00
66668;BME280;57205;51.438;-2.006;2022-12-18T08:36:19;100981.75;;;1.70;100.00
66668;BME280;57205;51.438;-2.006;2022-12-18T08:38:45;100973.00;;;1.70;100.00
66668;BME280;57205;51.438;-2.006;2022-12-18T08:41:11;100968.75;;;1.69;100.00
66668;BME280;57205;51.438;-2.006;2022-12-18T08:43:37;100958.22;;;1.69;100.00
66668;BME280;57205;51.438;-2.006;2022-12-18T08:46:21;100958.38;;;1.67;100.00
66668;BME280;57205;51.438;-2.006;2022-12-18T08:48:47;100949.88;;;1.65;100.00
66668;BME280;57205;51.438;-2.006;2022-12-18T08:51:13;100942.97;;;1.64;100.00
66668;BME280;57205;51.438;-2.006;2022-12-18T08:53:38;100947.41;;;1.64;100.00
66668;BME280;57205;51.438;-2.006;2022-12-18T08:56:05;100941.16;;;1.65;100.00
66668;BME280;57205;51.438;-2.006;2022-12-18T08:58:30;100935.88;;;1.65;100.00
66668;BME280;57205;51.438;-2.006;2022-12-18T09:01:02;100939.50;;;1.64;100.00
66668;BME280;57205;51.438;-2.006;2022-12-18T09:03:28;100943.59;;;1.66;100.00
66668;BME280;57205;51.438;-2.006;2022-12-18T09:05:53;100932.22;;;1.66;100.00
66668;BME280;57205;51.438;-2.006;2022-12-18T09:08:18;100919.84;;;1.66;100.00
66668;BME280;57205;51.438;-2.006;2022-12-18T09:10:44;100914.78;;;1.65;100.00
66668;BME280;57205;51.438;-2.006;2022-12-18T09:13:10;100899.16;;;1.70;100.00
66668;BME280;57205;51.438;-2.006;2022-12-18T09:15:40;100888.41;;;1.71;100.00
66668;BME280;57205;51.438;-2.006;2022-12-18T09:18:05;100879.72;;;1.71;100.00
66668;BME280;57205;51.438;-2.006;2022-12-18T09:20:30;100873.63;;;1.70;100.00
66668;BME280;57205;51.438;-2.006;2022-12-18T09:22:55;100887.41;;;1.72;100.00
66668;BME280;57205;51.438;-2.006;2022-12-18T09:25:22;100889.66;;;1.75;100.00
66668;BME280;57205;51.438;-2.006;2022-12-18T09:27:47;100886.81;;;1.77;100.00
66668;BME280;57205;51.438;-2.006;2022-12-18T09:30:12;100878.09;;;1.76;100.00
66668;BME280;57205;51.438;-2.006;2022-12-18T09:32:37;100873.22;;;1.80;100.00
66668;BME280;57205;51.438;-2.006;2022-12-18T09:35:03;100873.22;;;1.80;100.00
66668;BME280;57205;51.438;-2.006;2022-12-18T09:37:28;100877.47;;;1.81;100.00
66668;BME280;57205;51.438;-2.006;2022-12-18T09:39:53;100872.19;;;1.81;100.00
66668;BME280;57205;51.438;-2.006;2022-12-18T09:42:22;100865.72;;;1.83;100.00
66668;BME280;57205;51.438;-2.006;2022-12-18T09:44:51;100862.47;;;1.88;100.00
66668;BME280;57205;51.438;-2.006;2022-12-18T09:47:28;100866.53;;;1.90;100.00
66668;BME280;57205;51.438;-2.006;2022-12-18T09:49:59;100868.34;;;1.90;100.00
66668;BME280;57205;51.438;-2.006;2022-12-18T09:52:33;100853.13;;;1.92;100.00
66668;BME280;57205;51.438;-2.006;2022-12-18T09:55:17;100859.03;;;1.94;100.00
66668;BME280;57205;51.438;-2.006;2022-12-18T09:57:47;100852.34;;;1.98;100.00
66668;BME280;57205;51.438;-2.006;2022-12-18T10:02:39;100858.41;;;2.05;100.00
66668;BME280;57205;51.438;-2.006;2022-12-18T10:05:11;100862.09;;;2.04;100.00
66668;BME280;57205;51.438;-2.006;2022-12-18T10:15:39;100853.94;;;2.12;100.00
66668;BME280;57205;51.438;-2.006;2022-12-18T10:20:43;100837.13;;;2.13;100.00
66668;BME280;57205;51.438;-2.006;2022-12-18T10:28:08;100836.31;;;2.19;100.00
66668;BME280;57205;51.438;-2.006;2022-12-18T10:30:35;100821.06;;;2.21;100.00
66668;BME280;57205;51.438;-2.006;2022-12-18T10:33:03;100808.28;;;2.25;100.00
66668;BME280;57205;51.438;-2.006;2022-12-18T10:35:28;100803.59;;;2.27;100.00
66668;BME280;57205;51.438;-2.006;2022-12-18T10:38:00;100793.44;;;2.30;100.00
66668;BME280;57205;51.438;-2.006;2022-12-18T10:40:26;100783.69;;;2.31;100.00
66668;BME280;57205;51.438;-2.006;2022-12-18T10:43:05;100787.97;;;2.32;100.00
66668;BME280;57205;51.438;-2.006;2022-12-18T10:45:31;100781.25;;;2.36;100.00
66668;BME280;57205;51.438;-2.006;2022-12-18T10:47:58;100764.16;;;2.38;100.00
66668;BME280;57205;51.438;-2.006;2022-12-18T10:50:28;100757.66;;;2.41;100.00
66668;BME280;57205;51.438;-2.006;2022-12-18T10:52:54;100744.25;;;2.42;100.00
66668;BME280;57205;51.438;-2.006;2022-12-18T10:55:20;100737.34;;;2.48;100.00
66668;BME280;57205;51.438;-2.006;2022-12-18T10:57:45;100724.13;;;2.54;100.00
66668;BME280;57205;51.438;-2.006;2022-12-18T11:02:45;100697.50;;;2.56;100.00
66668;BME280;57205;51.438;-2.006;2022-12-18T11:07:49;100689.34;;;2.57;100.00
66668;BME280;57205;51.438;-2.006;2022-12-18T11:10:16;100689.97;;;2.59;100.00
66668;BME280;57205;51.438;-2.006;2022-12-18T11:12:42;100680.00;;;2.61;100.00
66668;BME280;57205;51.438;-2.006;2022-12-18T11:15:14;100674.28;;;2.64;100.00
66668;BME280;57205;51.438;-2.006;2022-12-18T11:17:40;100663.72;;;2.64;100.00
66668;BME280;57205;51.438;-2.006;2022-12-18T11:20:06;100655.38;;;2.67;100.00
66668;BME280;57205;51.438;-2.006;2022-12-18T11:22:33;100655.16;;;2.69;100.00
66668;BME280;57205;51.438;-2.006;2022-12-18T11:25:16;100649.66;;;2.70;100.00
66668;BME280;57205;51.438;-2.006;2022-12-18T11:27:53;100652.47;;;2.75;100.00
66668;BME280;57205;51.438;-2.006;2022-12-18T11:32:45;100635.34;;;2.84;100.00
66668;BME280;57205;51.438;-2.006;2022-12-18T11:35:17;100633.53;;;2.85;100.00
66668;BME280;57205;51.438;-2.006;2022-12-18T11:37:47;100619.09;;;2.87;100.00
66668;BME280;57205;51.438;-2.006;2022-12-18T11:40:14;100627.59;;;2.89;100.00
66668;BME280;57205;51.438;-2.006;2022-12-18T11:42:45;100613.38;;;2.90;100.00
66668;BME280;57205;51.438;-2.006;2022-12-18T11:50:05;100587.53;;;2.92;100.00
66668;BME280;57205;51.438;-2.006;2022-12-18T11:52:38;100577.13;;;2.97;100.00
66668;BME280;57205;51.438;-2.006;2022-12-18T11:55:11;100563.50;;;3.01;100.00
66668;BME280;57205;51.438;-2.006;2022-12-18T12:00:18;100555.28;;;3.09;100.00
66668;BME280;57205;51.438;-2.006;2022-12-18T12:08:12;100557.50;;;3.12;100.00
66668;BME280;57205;51.438;-2.006;2022-12-18T12:15:50;100535.75;;;3.10;100.00
66668;BME280;57205;51.438;-2.006;2022-12-18T12:18:29;100535.75;;;3.10;100.00
66668;BME280;57205;51.438;-2.006;2022-12-18T12:26:10;100510.94;;;3.11;100.00
66668;BME280;57205;51.438;-2.006;2022-12-18T12:28:46;100509.31;;;3.10;100.00
66668;BME280;57205;51.438;-2.006;2022-12-18T12:38:56;100472.59;;;3.20;100.00
66668;BME280;57205;51.438;-2.006;2022-12-18T12:41:26;100463.66;;;3.21;100.00
66668;BME280;57205;51.438;-2.006;2022-12-18T12:44:15;100451.63;;;3.25;100.00
66668;BME280;57205;51.438;-2.006;2022-12-18T12:46:42;100437.97;;;3.28;100.00
66668;BME280;57205;51.438;-2.006;2022-12-18T12:49:09;100443.38;;;3.33;100.00
66668;BME280;57205;51.438;-2.006;2022-12-18T12:51:37;100421.56;;;3.37;100.00
66668;BME280;57205;51.438;-2.006;2022-12-18T12:54:08;100424.00;;;3.39;100.00
66668;BME280;57205;51.438;-2.006;2022-12-18T12:56:39;100417.81;;;3.45;100.00
66668;BME280;57205;51.438;-2.006;2022-12-18T13:01:57;100421.78;;;3.54;100.00
66668;BME280;57205;51.438;-2.006;2022-12-18T13:09:21;100399.28;;;3.63;100.00
66668;BME280;57205;51.438;-2.006;2022-12-18T13:11:47;100408.59;;;3.65;100.00
66668;BME280;57205;51.438;-2.006;2022-12-18T13:14:38;100390.44;;;3.69;100.00
66668;BME280;57205;51.438;-2.006;2022-12-18T13:17:16;100389.41;;;3.70;100.00
66668;BME280;57205;51.438;-2.006;2022-12-18T13:19:41;100384.25;;;3.75;100.00
66668;BME280;57205;51.438;-2.006;2022-12-18T13:22:20;100373.22;;;3.78;100.00
66668;BME280;57205;51.438;-2.006;2022-12-18T13:24:47;100363.56;;;3.83;100.00
66668;BME280;57205;51.438;-2.006;2022-12-18T13:27:56;100360.38;;;3.93;100.00
66668;BME280;57205;51.438;-2.006;2022-12-18T13:30:11;100351.88;;;4.03;100.00
66668;BME280;57205;51.438;-2.006;2022-12-18T13:32:48;100358.91;;;4.09;100.00
66668;BME280;57205;51.438;-2.006;2022-12-18T13:37:54;100349.47;;;4.24;100.00
66668;BME280;57205;51.438;-2.006;2022-12-18T13:43:15;100342.47;;;4.30;100.00
66668;BME280;57205;51.438;-2.006;2022-12-18T13:45:42;100337.75;;;4.32;100.00
66668;BME280;57205;51.438;-2.006;2022-12-18T13:48:15;100333.13;;;4.39;100.00
66668;BME280;57205;51.438;-2.006;2022-12-18T13:50:41;100325.75;;;4.41;100.00
66668;BME280;57205;51.438;-2.006;2022-12-18T13:53:07;100320.00;;;4.44;100.00
66668;BME280;57205;51.438;-2.006;2022-12-18T13:55:32;100322.53;;;4.50;100.00
66668;BME280;57205;51.438;-2.006;2022-12-18T13:58:04;100298.00;;;4.55;100.00
66668;BME280;57205;51.438;-2.006;2022-12-18T14:00:30;100298.34;;;4.58;100.00
66668;BME280;57205;51.438;-2.006;2022-12-18T14:02:55;100289.47;;;4.64;100.00
66668;BME280;57205;51.438;-2.006;2022-12-18T14:05:22;100282.63;;;4.68;100.00